Time;durP1;ratioP1;P1;durP2;ratioP2;P2;SDS_P1;SDS_P2;PMS_P1;PMS_P2;Temp;Humidity;BMP_temperature;BMP_pressure;BME280_temperature;BME280_humidity;BME280_pressure;Samples;Min_cycle;Max_cycle;Signal;HPM_P1;HPM_P2
2021/05/17 00:01:35;;;;;;;10.50;4.85;;;17.90;76.50;;;;;;5118589;28;20030;-36
2021/05/17 00:04:04;;;;;;;11.90;5.07;;;17.80;76.90;;;;;;5118696;28;20484;-36
2021/05/17 00:06:31;;;;;;;10.02;4.70;;;17.70;77.20;;;;;;5118866;28;20051;-36
2021/05/17 00:08:57;;;;;;;7.68;4.30;;;17.70;77.50;;;;;;5118807;28;20085;-37
2021/05/17 00:11:24;;;;;;;9.10;4.93;;;17.60;77.80;;;;;;5118970;28;20311;-36
2021/05/17 00:13:51;;;;;;;11.82;5.40;;;17.60;78.10;;;;;;5118660;28;20027;-36
2021/05/17 00:16:17;;;;;;;8.32;5.10;;;17.60;78.80;;;;;;5118686;28;20281;-36
2021/05/17 00:18:43;;;;;;;9.75;4.70;;;17.50;78.40;;;;;;5118414;28;20031;-36
2021/05/17 00:21:09;;;;;;;7.18;4.22;;;17.50;78.80;;;;;;5118673;28;20338;-36
2021/05/17 00:23:35;;;;;;;10.05;4.20;;;17.50;78.90;;;;;;5118363;28;20030;-36
2021/05/17 00:26:02;;;;;;;7.38;4.03;;;17.40;79.20;;;;;;5118032;28;20032;-36
2021/05/17 00:28:28;;;;;;;7.63;4.95;;;17.40;79.20;;;;;;5118157;28;20028;-36
2021/05/17 00:30:54;;;;;;;8.80;4.72;;;17.40;79.70;;;;;;5118258;28;20373;-37
2021/05/17 00:33:20;;;;;;;9.25;4.88;;;17.30;79.70;;;;;;5118359;28;20116;-37
2021/05/17 00:35:45;;;;;;;6.65;4.35;;;17.30;80.00;;;;;;5118379;28;20042;-37
2021/05/17 00:38:11;;;;;;;5.90;4.22;;;17.30;79.80;;;;;;5118332;28;20385;-36
2021/05/17 00:40:37;;;;;;;7.60;4.65;;;17.20;79.50;;;;;;5118269;28;20065;-36
2021/05/17 00:43:06;;;;;;;7.50;4.70;;;17.20;79.90;;;;;;5118045;28;20316;-36
2021/05/17 00:45:33;;;;;;;8.82;4.78;;;17.20;80.40;;;;;;5117647;28;20028;-36
2021/05/17 00:47:59;;;;;;;8.38;4.50;;;17.20;81.00;;;;;;5118035;28;20097;-36
2021/05/17 00:50:27;;;;;;;8.07;4.22;;;17.10;80.70;;;;;;5117707;28;20046;-37
2021/05/17 00:52:54;;;;;;;8.52;4.00;;;17.10;80.50;;;;;;5117706;28;20071;-36
2021/05/17 00:55:21;;;;;;;7.78;4.50;;;17.10;80.90;;;;;;5099587;28;20030;-36
2021/05/17 00:57:46;;;;;;;7.20;4.75;;;17.00;81.10;;;;;;5117568;28;20024;-37
2021/05/17 01:00:17;;;;;;;9.73;5.00;;;17.00;81.40;;;;;;5116566;28;20457;-36
2021/05/17 01:02:43;;;;;;;8.55;4.50;;;17.00;82.00;;;;;;5117604;28;20115;-36
2021/05/17 01:05:12;;;;;;;9.77;4.57;;;16.90;82.40;;;;;;5117293;28;20083;-36
2021/05/17 01:07:38;;;;;;;8.50;4.20;;;16.90;82.30;;;;;;5117596;28;20035;-37
2021/05/17 01:10:05;;;;;;;4.65;3.28;;;16.90;82.50;;;;;;5117538;28;20318;-36
2021/05/17 01:12:34;;;;;;;7.40;4.25;;;16.80;82.60;;;;;;5117290;28;20028;-36
2021/05/17 01:15:00;;;;;;;8.13;4.93;;;16.80;83.00;;;;;;5117555;28;20357;-36
2021/05/17 01:17:27;;;;;;;6.90;4.75;;;16.80;83.40;;;;;;5117114;28;20087;-36
2021/05/17 01:20:06;;;;;;;9.57;4.70;;;16.80;83.60;;;;;;5117114;28;20174;-37
2021/05/17 01:22:39;;;;;;;9.98;4.43;;;16.80;83.80;;;;;;5117415;28;20401;-37
2021/05/17 01:25:06;;;;;;;9.13;4.22;;;16.80;83.80;;;;;;5116930;28;20502;-37
2021/05/17 01:27:33;;;;;;;8.38;4.53;;;16.80;83.70;;;;;;5116988;28;20050;-36
2021/05/17 01:29:59;;;;;;;7.88;4.32;;;16.80;83.80;;;;;;5117076;28;20035;-37
2021/05/17 01:32:25;;;;;;;9.80;4.70;;;16.70;83.60;;;;;;5116762;28;20077;-37
2021/05/17 01:34:51;;;;;;;13.57;5.55;;;16.70;83.70;;;;;;5116943;28;20360;-37
2021/05/17 01:37:23;;;;;;;6.97;4.25;;;16.70;83.80;;;;;;5117091;28;20055;-36
2021/05/17 01:39:52;;;;;;;7.32;4.72;;;16.70;84.00;;;;;;5116924;28;20075;-37
2021/05/17 01:42:20;;;;;;;7.30;4.60;;;16.70;84.50;;;;;;5116672;28;20081;-36
2021/05/17 01:44:47;;;;;;;7.30;4.80;;;16.70;84.60;;;;;;5116863;28;20085;-36
2021/05/17 01:47:16;;;;;;;7.72;4.65;;;16.70;84.60;;;;;;5116782;28;20488;-36
2021/05/17 01:49:43;;;;;;;7.20;4.20;;;16.70;84.70;;;;;;5116772;28;20039;-36
2021/05/17 01:52:09;;;;;;;7.95;4.78;;;16.70;84.80;;;;;;5116470;28;20024;-37
2021/05/17 01:54:43;;;;;;;8.45;4.63;;;16.80;84.70;;;;;;5116572;28;20042;-36
2021/05/17 01:57:08;;;;;;;8.23;5.50;;;16.80;84.30;;;;;;5116347;28;20031;-36
2021/05/17 01:59:34;;;;;;;12.80;6.18;;;16.80;84.30;;;;;;5116371;28;20048;-36
2021/05/17 02:02:01;;;;;;;9.38;5.35;;;16.70;84.30;;;;;;5116345;28;20023;-36
2021/05/17 02:04:27;;;;;;;12.05;5.60;;;16.60;84.10;;;;;;5116499;28;20039;-36
2021/05/17 02:06:53;;;;;;;8.00;4.20;;;16.50;84.10;;;;;;5116381;28;20077;-36
2021/05/17 02:09:19;;;;;;;6.72;4.80;;;16.50;84.20;;;;;;5116237;28;20411;-36
2021/05/17 02:11:45;;;;;;;8.80;5.05;;;16.40;84.70;;;;;;5116376;28;20023;-37
2021/05/17 02:14:12;;;;;;;9.20;5.03;;;16.40;85.10;;;;;;5116236;28;20059;-36
2021/05/17 02:16:38;;;;;;;7.75;5.05;;;16.30;85.20;;;;;;5116326;28;20031;-36
2021/05/17 02:19:04;;;;;;;8.00;4.90;;;16.30;85.30;;;;;;5116205;28;20034;-36
2021/05/17 02:21:30;;;;;;;7.03;4.88;;;16.30;85.80;;;;;;5116563;28;20027;-36
2021/05/17 02:23:56;;;;;;;8.45;4.80;;;16.30;86.00;;;;;;5116233;28;20028;-37
2021/05/17 02:26:21;;;;;;;8.45;4.35;;;16.20;86.10;;;;;;5116439;28;20084;-36
2021/05/17 02:28:47;;;;;;;9.05;4.88;;;16.20;86.10;;;;;;5116100;28;20073;-36
2021/05/17 02:31:13;;;;;;;7.28;4.60;;;16.20;86.00;;;;;;5116529;28;20352;-37
2021/05/17 02:33:39;;;;;;;10.25;5.25;;;16.20;85.90;;;;;;5116421;28;20028;-36
2021/05/17 02:36:06;;;;;;;8.48;4.10;;;16.20;86.00;;;;;;5115780;28;20035;-37
2021/05/17 02:38:33;;;;;;;6.57;4.82;;;16.20;85.70;;;;;;5116283;28;20434;-36
2021/05/17 02:40:59;;;;;;;8.20;5.10;;;16.10;85.70;;;;;;5116267;28;20377;-36
2021/05/17 02:43:27;;;;;;;7.47;4.97;;;16.10;85.70;;;;;;5116054;28;20100;-36
2021/05/17 02:45:53;;;;;;;8.68;5.38;;;16.10;85.60;;;;;;5116089;28;20066;-37
2021/05/17 02:48:25;;;;;;;7.75;5.22;;;16.10;85.60;;;;;;5116311;28;20024;-36
2021/05/17 02:50:51;;;;;;;7.55;5.22;;;16.20;85.80;;;;;;5116132;28;20027;-36
2021/05/17 02:53:51;;;;;;;9.07;5.40;;;16.20;85.50;;;;;;5115939;28;20028;-36
2021/05/17 02:56:36;;;;;;;9.38;5.63;;;16.20;85.10;;;;;;5116392;28;20019;-37
2021/05/17 02:59:05;;;;;;;8.27;5.45;;;16.20;85.30;;;;;;5115819;28;20101;-36
2021/05/17 03:01:49;;;;;;;9.20;5.70;;;16.10;85.50;;;;;;5116335;28;20052;-36
2021/05/17 03:04:18;;;;;;;8.68;5.03;;;16.10;85.40;;;;;;5115762;28;20040;-37
2021/05/17 03:06:58;;;;;;;8.32;5.65;;;16.10;85.70;;;;;;5115872;28;20036;-36
2021/05/17 03:09:26;;;;;;;10.40;5.32;;;16.20;86.00;;;;;;5116062;28;20374;-36
2021/05/17 03:11:53;;;;;;;12.95;5.85;;;16.20;86.00;;;;;;5115629;28;20032;-36
2021/05/17 03:14:20;;;;;;;7.93;4.50;;;16.20;86.40;;;;;;5115885;28;20358;-37
2021/05/17 03:16:52;;;;;;;8.10;4.85;;;16.20;86.40;;;;;;5115623;28;20111;-36
2021/05/17 03:19:18;;;;;;;7.45;5.55;;;16.30;86.30;;;;;;5115554;28;20121;-37
2021/05/17 03:21:44;;;;;;;9.15;5.38;;;16.30;86.60;;;;;;5115793;28;20332;-36
2021/05/17 03:24:11;;;;;;;8.35;4.97;;;16.40;86.80;;;;;;5117210;28;20033;-36
2021/05/17 03:26:37;;;;;;;7.32;4.93;;;16.40;86.40;;;;;;5101034;28;20118;-36
2021/05/17 03:29:04;;;;;;;9.40;4.90;;;16.40;86.50;;;;;;5119512;28;20020;-36
2021/05/17 03:31:29;;;;;;;7.97;4.32;;;16.40;86.60;;;;;;5119657;28;20472;-36
2021/05/17 03:33:59;;;;;;;5.95;4.53;;;16.40;86.40;;;;;;5119772;28;20035;-36
2021/05/17 03:36:24;;;;;;;5.95;4.63;;;16.50;86.30;;;;;;5119598;28;20027;-36
2021/05/17 03:38:50;;;;;;;6.00;4.13;;;16.50;86.20;;;;;;5119526;28;20038;-36
2021/05/17 03:41:16;;;;;;;7.70;3.97;;;16.50;86.00;;;;;;5119360;28;20020;-36
2021/05/17 03:43:41;;;;;;;10.65;4.65;;;16.50;85.90;;;;;;5119060;28;20035;-37
2021/05/17 03:46:07;;;;;;;7.20;4.60;;;16.50;86.30;;;;;;5118766;28;20088;-36
2021/05/17 03:48:40;;;;;;;5.63;3.88;;;16.50;85.80;;;;;;5119214;28;20076;-36
2021/05/17 03:51:07;;;;;;;7.00;3.63;;;16.60;85.70;;;;;;5119032;28;20031;-36
2021/05/17 03:53:32;;;;;;;5.53;3.95;;;16.60;85.40;;;;;;5118930;28;20368;-36
2021/05/17 03:55:58;;;;;;;5.25;3.78;;;16.60;85.40;;;;;;5119072;28;20107;-37
2021/05/17 03:58:23;;;;;;;4.45;3.67;;;16.60;85.20;;;;;;5118773;28;20028;-37
2021/05/17 04:00:49;;;;;;;6.90;4.00;;;16.60;85.10;;;;;;5118765;28;20043;-37
2021/05/17 04:03:17;;;;;;;4.63;3.78;;;16.60;84.80;;;;;;5118997;28;20043;-36
2021/05/17 04:13:37;;;;;;;10.35;5.15;;;16.60;86.10;;;;;;5118771;28;20023;-36
2021/05/17 04:16:03;;;;;;;10.30;5.15;;;16.60;86.30;;;;;;5118648;28;20024;-37
2021/05/17 04:18:29;;;;;;;7.05;4.00;;;16.60;86.40;;;;;;5118289;28;20035;-36
2021/05/17 04:20:54;;;;;;;4.95;3.90;;;16.60;85.80;;;;;;5118427;28;20028;-37
2021/05/17 04:23:25;;;;;;;6.32;3.88;;;16.60;85.80;;;;;;5118348;28;20030;-36
2021/05/17 04:25:52;;;;;;;4.97;3.97;;;16.60;85.40;;;;;;5118461;28;20407;-36
2021/05/17 04:28:18;;;;;;;6.32;3.60;;;16.60;85.00;;;;;;5118259;28;20392;-36
2021/05/17 04:30:45;;;;;;;5.35;3.20;;;16.60;85.00;;;;;;5118087;28;20027;-36
2021/05/17 04:33:10;;;;;;;6.65;4.03;;;16.70;85.20;;;;;;5117928;28;20028;-36
2021/05/17 04:35:36;;;;;;;6.22;4.45;;;16.70;85.30;;;;;;5117233;28;20028;-36
2021/05/17 04:38:02;;;;;;;5.70;4.15;;;16.70;85.20;;;;;;5117594;28;20027;-36
2021/05/17 04:40:29;;;;;;;7.15;4.60;;;16.80;85.10;;;;;;5118041;28;20028;-37
2021/05/17 04:42:54;;;;;;;7.22;4.20;;;16.70;85.00;;;;;;5118026;28;20032;-36
2021/05/17 04:45:23;;;;;;;8.50;7.13;;;16.80;85.00;;;;;;5117629;28;20032;-37
2021/05/17 04:47:49;;;;;;;7.28;4.70;;;16.80;85.30;;;;;;5117821;28;20116;-36
2021/05/17 04:50:15;;;;;;;6.32;4.55;;;16.70;85.30;;;;;;5117783;28;20028;-37
2021/05/17 04:52:40;;;;;;;8.32;6.35;;;16.80;85.00;;;;;;5117507;28;20020;-35
2021/05/17 04:55:06;;;;;;;6.60;4.90;;;16.80;85.20;;;;;;5117589;28;20027;-37
2021/05/17 04:57:32;;;;;;;7.65;4.82;;;16.90;85.30;;;;;;5117398;28;20174;-37
2021/05/17 04:59:58;;;;;;;8.02;5.45;;;16.90;85.50;;;;;;5117322;28;20055;-36
2021/05/17 05:02:23;;;;;;;8.93;4.50;;;16.90;85.60;;;;;;5117473;28;20027;-36
2021/05/17 05:04:49;;;;;;;5.13;4.40;;;16.90;85.60;;;;;;5117336;28;20419;-37
2021/05/17 05:07:15;;;;;;;8.00;4.43;;;16.90;85.70;;;;;;5116953;28;20031;-35
2021/05/17 05:09:41;;;;;;;5.72;4.10;;;17.00;85.80;;;;;;5117073;28;20034;-37
2021/05/17 05:12:07;;;;;;;7.35;4.70;;;17.10;85.60;;;;;;5117194;28;20039;-37
2021/05/17 05:14:32;;;;;;;4.85;3.65;;;17.10;86.00;;;;;;5117360;28;20023;-37
2021/05/17 05:16:58;;;;;;;5.30;3.72;;;17.20;85.90;;;;;;5117041;28;20471;-36
2021/05/17 05:19:24;;;;;;;5.60;3.83;;;17.20;85.60;;;;;;5116947;28;20023;-37
2021/05/17 05:21:50;;;;;;;5.63;3.85;;;17.30;85.50;;;;;;5111863;28;20319;-36
2021/05/17 05:24:16;;;;;;;6.47;4.57;;;17.40;85.50;;;;;;5116797;28;20032;-36
2021/05/17 05:32:21;;;;;;;7.57;4.43;;;17.60;85.30;;;;;;5116732;28;20035;-37
2021/05/17 05:34:47;;;;;;;5.30;3.90;;;17.70;85.10;;;;;;5116794;28;20058;-37
2021/05/17 05:37:13;;;;;;;4.97;3.83;;;17.80;84.80;;;;;;5116202;28;20028;-36
2021/05/17 05:39:39;;;;;;;6.15;3.30;;;17.90;84.20;;;;;;5116965;28;20031;-36
2021/05/17 05:42:05;;;;;;;7.50;4.15;;;17.90;84.20;;;;;;5116038;28;20038;-37
2021/05/17 05:44:32;;;;;;;7.75;3.38;;;18.00;83.80;;;;;;5116656;28;20062;-36
2021/05/17 05:46:58;;;;;;;7.65;4.30;;;18.10;83.90;;;;;;5115522;28;20035;-36
2021/05/17 05:49:24;;;;;;;6.07;3.88;;;18.20;84.30;;;;;;5116210;28;20452;-37
2021/05/17 05:51:50;;;;;;;6.60;3.92;;;18.30;84.00;;;;;;5116215;28;20409;-37
2021/05/17 05:54:17;;;;;;;9.32;5.60;;;18.40;83.10;;;;;;5120793;27;20027;-37
2021/05/17 05:56:42;;;;;;;8.27;4.07;;;18.50;83.00;;;;;;5136518;27;20035;-36
2021/05/17 05:59:08;;;;;;;5.30;4.10;;;18.50;83.00;;;;;;5106906;28;20101;-37
2021/05/17 06:01:34;;;;;;;8.30;4.30;;;18.50;82.40;;;;;;5115554;28;20080;-36
2021/05/17 06:03:59;;;;;;;5.07;4.30;;;18.60;81.70;;;;;;5111773;28;20046;-38
2021/05/17 06:06:25;;;;;;;8.10;4.45;;;18.70;81.60;;;;;;5116384;28;20107;-38
2021/05/17 06:08:51;;;;;;;5.80;4.50;;;18.70;80.80;;;;;;5115799;28;20056;-36
2021/05/17 06:11:17;;;;;;;5.00;4.00;;;18.70;80.70;;;;;;5116243;28;20063;-37
2021/05/17 06:13:44;;;;;;;5.70;4.40;;;18.70;79.80;;;;;;5115781;28;20034;-38
2021/05/17 06:16:11;;;;;;;6.68;3.90;;;18.70;80.20;;;;;;5116026;28;20038;-36
2021/05/17 06:18:37;;;;;;;7.50;4.30;;;18.60;79.80;;;;;;5115462;28;20024;-36
2021/05/17 06:21:04;;;;;;;5.75;4.22;;;18.60;79.80;;;;;;5116180;28;20040;-37
2021/05/17 06:23:30;;;;;;;8.48;4.28;;;18.60;79.80;;;;;;5115479;28;20032;-36
2021/05/17 06:25:57;;;;;;;7.00;4.53;;;18.60;79.80;;;;;;5115676;28;20028;-36
2021/05/17 06:28:24;;;;;;;9.05;4.20;;;18.60;80.10;;;;;;5115525;28;20035;-36
2021/05/17 06:30:56;;;;;;;6.47;4.95;;;18.60;80.30;;;;;;5115614;28;20028;-38
2021/05/17 06:33:22;;;;;;;7.18;4.47;;;18.60;81.70;;;;;;5115495;28;20026;-37
2021/05/17 06:35:56;;;;;;;8.13;3.97;;;18.70;81.40;;;;;;5115498;28;20110;-36
2021/05/17 06:38:23;;;;;;;6.10;3.67;;;18.70;81.30;;;;;;5115574;28;20024;-37
2021/05/17 06:40:48;;;;;;;5.38;3.92;;;18.80;81.50;;;;;;5115724;28;20039;-38
2021/05/17 06:43:15;;;;;;;5.85;3.95;;;18.90;80.90;;;;;;5115445;28;20028;-36
2021/05/17 06:45:41;;;;;;;6.85;3.67;;;19.00;80.30;;;;;;5115642;28;20156;-38
2021/05/17 06:48:07;;;;;;;8.30;4.50;;;19.20;80.50;;;;;;5115398;28;20140;-36
2021/05/17 06:50:34;;;;;;;6.85;5.05;;;19.30;79.60;;;;;;5115732;28;20110;-38
2021/05/17 06:52:59;;;;;;;5.88;4.20;;;19.40;79.50;;;;;;5115208;28;20035;-38
2021/05/17 06:55:32;;;;;;;4.70;3.75;;;19.40;79.20;;;;;;5115419;28;20035;-38
2021/05/17 06:58:07;;;;;;;6.88;3.55;;;19.60;78.50;;;;;;5129232;27;20138;-38
2021/05/17 07:00:33;;;;;;;11.40;4.03;;;19.60;78.10;;;;;;5138534;27;20379;-38
2021/05/17 07:03:07;;;;;;;8.77;4.30;;;19.70;77.80;;;;;;5124115;27;20084;-38
2021/05/17 07:05:38;;;;;;;6.75;4.28;;;19.80;77.40;;;;;;5119080;28;20032;-38
2021/05/17 07:13:18;;;;;;;11.07;5.35;;;19.90;77.00;;;;;;5118865;28;20039;-38
2021/05/17 07:15:45;;;;;;;10.25;4.35;;;20.00;77.30;;;;;;5117592;28;20028;-36
2021/05/17 07:18:11;;;;;;;11.00;4.70;;;20.00;77.00;;;;;;5133741;27;20076;-38
2021/05/17 07:25:53;;;;;;;8.25;4.97;;;19.90;75.90;;;;;;5139409;27;20142;-36
2021/05/17 07:28:19;;;;;;;9.60;4.80;;;19.80;75.90;;;;;;5139275;27;20114;-37
2021/05/17 07:30:46;;;;;;;7.05;5.05;;;19.80;75.80;;;;;;5139219;27;20031;-37
2021/05/17 07:33:12;;;;;;;14.95;6.07;;;19.70;76.00;;;;;;5139263;27;20367;-36
2021/05/17 07:35:38;;;;;;;7.70;4.82;;;19.60;76.80;;;;;;5139445;27;20031;-35
2021/05/17 07:38:04;;;;;;;7.75;5.30;;;19.50;77.10;;;;;;5138700;27;20024;-37
2021/05/17 07:40:30;;;;;;;8.98;4.82;;;19.50;77.40;;;;;;5139037;27;20035;-37
2021/05/17 07:42:56;;;;;;;5.32;4.05;;;19.40;77.60;;;;;;5139087;27;20027;-38
2021/05/17 07:45:22;;;;;;;7.82;4.78;;;19.30;77.70;;;;;;5138718;27;20035;-36
2021/05/17 07:47:48;;;;;;;7.10;4.65;;;19.20;78.10;;;;;;5139110;27;20031;-35
2021/05/17 07:50:14;;;;;;;13.13;5.75;;;19.10;78.00;;;;;;5138508;27;20031;-37
2021/05/17 07:52:40;;;;;;;12.55;5.65;;;19.10;78.60;;;;;;5139186;27;20387;-37
2021/05/17 07:55:06;;;;;;;9.93;5.22;;;19.00;78.70;;;;;;5138920;27;20061;-39
2021/05/17 07:57:32;;;;;;;8.32;4.30;;;18.90;78.60;;;;;;5138621;27;20023;-39
2021/05/17 07:59:57;;;;;;;8.48;4.80;;;18.80;78.90;;;;;;5139049;27;20055;-39
2021/05/17 08:02:23;;;;;;;7.85;4.80;;;18.80;79.10;;;;;;5139015;27;20023;-37
2021/05/17 08:04:51;;;;;;;8.82;5.70;;;18.70;79.80;;;;;;5139121;27;20023;-38
2021/05/17 08:07:21;;;;;;;12.68;6.43;;;18.60;80.50;;;;;;5138346;27;20066;-37
2021/05/17 08:09:48;;;;;;;11.10;6.07;;;18.50;80.70;;;;;;5138870;27;20057;-37
2021/05/17 08:12:14;;;;;;;10.43;5.78;;;18.50;80.70;;;;;;5138520;27;20059;-37
2021/05/17 08:14:39;;;;;;;10.20;6.07;;;18.40;81.30;;;;;;5138277;27;20046;-36
2021/05/17 08:17:06;;;;;;;12.82;6.40;;;18.30;81.80;;;;;;5138240;27;20020;-38
2021/05/17 08:19:33;;;;;;;12.48;6.78;;;18.20;82.40;;;;;;5120479;27;20035;-39
2021/05/17 08:21:59;;;;;;;11.23;6.47;;;18.10;82.80;;;;;;5138206;27;20031;-38
2021/05/17 08:24:26;;;;;;;11.35;7.18;;;18.00;83.30;;;;;;5138262;27;20106;-39
2021/05/17 08:26:52;;;;;;;11.55;8.35;;;17.90;83.90;;;;;;5137836;27;20083;-39
2021/05/17 08:29:18;;;;;;;7.10;5.70;;;17.80;84.30;;;;;;5120026;27;20035;-39
2021/05/17 08:31:48;;;;;;;9.65;6.72;;;17.70;84.50;;;;;;5138299;27;20353;-39
2021/05/17 08:34:14;;;;;;;11.27;7.13;;;17.60;85.00;;;;;;5135184;27;20027;-37
2021/05/17 08:36:40;;;;;;;9.32;6.30;;;17.50;85.30;;;;;;5137712;27;20031;-38
2021/05/17 08:39:06;;;;;;;8.50;6.47;;;17.50;85.60;;;;;;5138046;27;20034;-37
2021/05/17 08:41:34;;;;;;;7.40;6.32;;;17.40;85.60;;;;;;5137606;27;20114;-37
2021/05/17 08:43:59;;;;;;;7.97;5.55;;;17.40;85.60;;;;;;5137781;27;20015;-39
2021/05/17 08:46:26;;;;;;;10.95;6.28;;;17.40;85.70;;;;;;5137929;27;20046;-38
2021/05/17 08:48:52;;;;;;;7.03;4.70;;;17.40;86.00;;;;;;5138020;27;20061;-39
2021/05/17 08:51:25;;;;;;;8.48;6.90;;;17.40;86.10;;;;;;5137665;27;20509;-39
2021/05/17 08:53:53;;;;;;;9.90;6.70;;;17.50;87.10;;;;;;5137361;27;20028;-39
2021/05/17 08:56:19;;;;;;;9.52;7.38;;;17.50;87.20;;;;;;5137356;27;20564;-39
2021/05/17 08:58:45;;;;;;;13.85;9.02;;;17.60;87.70;;;;;;5137247;27;20019;-37
2021/05/17 09:01:11;;;;;;;13.85;8.95;;;17.70;88.50;;;;;;5137367;27;20418;-37
2021/05/17 09:03:37;;;;;;;14.18;8.48;;;17.70;89.00;;;;;;5137442;27;20338;-37
2021/05/17 09:06:11;;;;;;;13.43;10.85;;;17.80;88.70;;;;;;5136989;27;20027;-37
2021/05/17 09:08:44;;;;;;;12.38;8.60;;;17.90;88.70;;;;;;5137562;27;20031;-37
2021/05/17 09:11:10;;;;;;;7.78;6.97;;;18.00;89.40;;;;;;5137218;27;20027;-37
2021/05/17 09:13:36;;;;;;;11.52;9.75;;;18.10;89.40;;;;;;5119204;27;20031;-39
2021/05/17 09:16:03;;;;;;;7.15;6.45;;;18.30;89.20;;;;;;5136821;27;20103;-37
2021/05/17 09:18:31;;;;;;;11.10;6.90;;;18.40;88.80;;;;;;5137276;27;20027;-38
2021/05/17 09:20:59;;;;;;;10.90;8.13;;;18.50;88.60;;;;;;5136690;27;20359;-39
2021/05/17 09:23:34;;;;;;;17.73;15.82;;;18.70;88.60;;;;;;5137319;27;20054;-39
2021/05/17 09:26:06;;;;;;;13.10;7.97;;;18.80;87.70;;;;;;5136677;27;20031;-37
2021/05/17 09:28:34;;;;;;;12.45;8.20;;;18.90;87.00;;;;;;5136889;27;20027;-37
2021/05/17 09:31:09;;;;;;;9.50;6.50;;;19.00;86.50;;;;;;5136665;27;20032;-37
2021/05/17 09:33:48;;;;;;;14.25;7.03;;;19.10;85.90;;;;;;5137500;27;20072;-37
2021/05/17 09:36:40;;;;;;;10.45;7.60;;;19.20;85.10;;;;;;5136806;27;20041;-39
2021/05/17 09:39:17;;;;;;;11.88;7.60;;;19.30;84.20;;;;;;5136716;27;20029;-39
2021/05/17 09:41:45;;;;;;;7.85;6.88;;;19.40;84.20;;;;;;5136707;27;20029;-39
2021/05/17 09:44:12;;;;;;;9.38;6.32;;;19.50;84.20;;;;;;5136218;27;20026;-39
2021/05/17 09:47:09;;;;;;;13.35;9.68;;;19.70;83.30;;;;;;5136237;27;20024;-39
2021/05/17 09:49:45;;;;;;;7.18;5.85;;;19.80;83.60;;;;;;5136623;27;20061;-39
2021/05/17 09:52:24;;;;;;;7.50;5.53;;;20.00;82.60;;;;;;5134822;27;20039;-39
2021/05/17 09:54:58;;;;;;;12.65;6.80;;;20.10;81.30;;;;;;5136740;27;20028;-39
2021/05/17 09:57:34;;;;;;;7.07;6.20;;;20.20;80.60;;;;;;5135943;27;20027;-39
2021/05/17 10:00:12;;;;;;;7.10;5.22;;;20.40;79.90;;;;;;5135953;27;20047;-37
2021/05/17 10:02:50;;;;;;;8.80;5.82;;;20.50;80.20;;;;;;5136831;27;20082;-39
2021/05/17 10:05:22;;;;;;;8.98;6.60;;;20.60;79.70;;;;;;5136501;27;20043;-37
2021/05/17 10:07:53;;;;;;;5.97;4.55;;;20.80;79.40;;;;;;5136517;27;20063;-39
2021/05/17 10:10:23;;;;;;;6.88;4.93;;;21.00;78.00;;;;;;5136212;27;20027;-39
2021/05/17 10:12:52;;;;;;;10.07;5.57;;;21.20;77.40;;;;;;5136396;27;20432;-39
2021/05/17 10:15:19;;;;;;;11.50;5.45;;;21.40;77.00;;;;;;5136769;27;20125;-37
2021/05/17 10:17:46;;;;;;;7.78;5.22;;;21.50;76.40;;;;;;5137153;27;20461;-39
2021/05/17 10:20:16;;;;;;;10.05;4.43;;;21.60;75.80;;;;;;5134788;27;20041;-39
2021/05/17 10:22:43;;;;;;;8.05;4.70;;;21.80;74.50;;;;;;5136326;27;20027;-39
2021/05/17 10:25:11;;;;;;;7.57;5.28;;;21.90;74.10;;;;;;5135879;27;20031;-39
2021/05/17 10:27:43;;;;;;;9.07;5.28;;;22.00;73.90;;;;;;5135509;28;20445;-39
2021/05/17 10:30:10;;;;;;;7.00;5.50;;;22.10;73.60;;;;;;5136562;27;20083;-37
2021/05/17 10:32:52;;;;;;;9.80;5.32;;;22.20;72.30;;;;;;5101874;28;20437;-37
2021/05/17 10:35:20;;;;;;;7.18;4.85;;;22.30;72.60;;;;;;5140792;27;20365;-37
2021/05/17 10:37:47;;;;;;;6.93;5.25;;;22.30;71.30;;;;;;5140823;27;20088;-39
2021/05/17 10:40:33;;;;;;;8.63;4.63;;;22.40;70.50;;;;;;5140134;27;20057;-39
2021/05/17 10:43:15;;;;;;;8.85;4.68;;;22.40;70.50;;;;;;5140995;27;20027;-39
2021/05/17 10:48:25;;;;;;;7.22;5.07;;;22.50;70.30;;;;;;5139748;27;20295;-39
2021/05/17 10:51:20;;;;;;;10.65;5.75;;;22.70;70.00;;;;;;5129179;27;20097;-39
2021/05/17 10:53:56;;;;;;;32.72;6.00;;;22.80;70.00;;;;;;5129766;27;20028;-37
2021/05/17 11:02:29;;;;;;;8.73;6.57;;;23.10;67.10;;;;;;5136100;27;20037;-39
2021/05/17 11:04:59;;;;;;;10.20;5.00;;;23.10;67.90;;;;;;5140186;27;20074;-39
2021/05/17 11:07:30;;;;;;;6.78;5.00;;;23.20;67.30;;;;;;5140051;27;20023;-39
2021/05/17 11:10:16;;;;;;;7.15;5.07;;;23.20;67.60;;;;;;5128236;27;20059;-40
2021/05/17 11:12:42;;;;;;;7.30;5.30;;;23.30;67.40;;;;;;5119411;28;20050;-37
2021/05/17 11:15:11;;;;;;;9.10;4.90;;;23.30;67.30;;;;;;5119221;28;20399;-37
2021/05/17 11:18:01;;;;;;;5.95;4.90;;;23.30;67.80;;;;;;5119248;28;20105;-39
2021/05/17 11:23:16;;;;;;;7.53;5.47;;;23.20;66.60;;;;;;5118981;28;20080;-39
2021/05/17 11:25:56;;;;;;;8.38;6.22;;;23.10;67.50;;;;;;5114311;28;20405;-40
2021/05/17 11:28:48;;;;;;;12.63;6.40;;;23.20;67.60;;;;;;5118520;27;20050;-39
2021/05/17 11:31:30;;;;;;;13.02;9.27;;;23.20;67.40;;;;;;5107680;28;20039;-39
2021/05/17 11:33:58;;;;;;;10.20;6.90;;;23.10;67.90;;;;;;5119090;28;20172;-39
2021/05/17 11:36:48;;;;;;;6.47;5.80;;;23.10;67.90;;;;;;5118205;28;20108;-39
2021/05/17 11:39:18;;;;;;;8.02;7.22;;;23.10;68.10;;;;;;5118744;28;20305;-39
2021/05/17 11:41:53;;;;;;;7.63;6.07;;;23.10;68.60;;;;;;5118435;28;20024;-39
2021/05/17 11:44:36;;;;;;;10.70;6.78;;;23.10;68.30;;;;;;5117737;28;20442;-37
2021/05/17 11:47:04;;;;;;;7.05;5.60;;;23.10;68.40;;;;;;5134533;27;20039;-37
2021/05/17 11:49:32;;;;;;;12.55;6.63;;;23.10;67.80;;;;;;5138915;27;20245;-37
2021/05/17 11:52:00;;;;;;;8.35;6.90;;;23.10;68.00;;;;;;5138851;27;20028;-39
2021/05/17 11:54:33;;;;;;;9.48;7.32;;;23.00;67.30;;;;;;5133675;27;20344;-39
2021/05/17 11:57:01;;;;;;;9.50;6.78;;;23.00;67.80;;;;;;5118036;28;20024;-37
2021/05/17 11:59:28;;;;;;;10.70;7.30;;;23.00;67.80;;;;;;5117867;28;20071;-37
2021/05/17 12:01:58;;;;;;;10.82;7.20;;;23.00;67.70;;;;;;5117774;28;20471;-37
2021/05/17 12:04:34;;;;;;;9.32;6.82;;;23.00;68.60;;;;;;5117915;27;20412;-37
2021/05/17 12:07:15;;;;;;;8.02;6.70;;;23.10;68.60;;;;;;5117184;28;20039;-39
2021/05/17 12:09:46;;;;;;;13.68;9.30;;;23.30;68.10;;;;;;5117681;28;20023;-37
2021/05/17 12:12:20;;;;;;;17.00;6.90;;;23.40;67.50;;;;;;5117317;27;20106;-38
2021/05/17 12:14:50;;;;;;;7.30;5.97;;;23.50;66.70;;;;;;5117876;28;20079;-38
2021/05/17 12:17:22;;;;;;;9.48;6.60;;;23.50;66.10;;;;;;5117472;28;20030;-38
2021/05/17 12:19:50;;;;;;;9.15;5.75;;;23.50;66.10;;;;;;5117686;28;20038;-37
2021/05/17 12:22:30;;;;;;;6.57;5.10;;;23.60;65.70;;;;;;5117441;27;20059;-40
2021/05/17 12:24:57;;;;;;;13.38;7.18;;;23.60;65.20;;;;;;5117783;28;20024;-39
2021/05/17 12:27:23;;;;;;;11.02;5.75;;;23.50;65.30;;;;;;5116970;28;20090;-38
2021/05/17 12:30:00;;;;;;;5.63;4.80;;;23.50;65.80;;;;;;5117766;28;20127;-39
2021/05/17 12:32:35;;;;;;;7.47;4.70;;;23.60;65.80;;;;;;5117829;28;20036;-37
2021/05/17 12:35:02;;;;;;;6.95;5.03;;;23.60;65.10;;;;;;5117421;28;20407;-37
2021/05/17 12:37:32;;;;;;;7.07;5.40;;;23.60;64.60;;;;;;5117363;28;20040;-38
2021/05/17 12:40:19;;;;;;;7.03;5.40;;;23.70;64.50;;;;;;5116826;28;20024;-39
2021/05/17 12:42:56;;;;;;;9.20;5.22;;;23.60;63.90;;;;;;5117725;28;20028;-40
2021/05/17 12:45:22;;;;;;;8.73;4.90;;;23.60;64.10;;;;;;5117202;28;20032;-39
2021/05/17 12:47:48;;;;;;;10.65;4.80;;;23.60;64.10;;;;;;5117231;28;20495;-37
2021/05/17 12:50:21;;;;;;;7.78;5.05;;;23.60;64.00;;;;;;5116710;28;20032;-37
2021/05/17 12:52:49;;;;;;;8.85;4.93;;;23.50;64.20;;;;;;5117347;28;20032;-37
2021/05/17 12:55:20;;;;;;;8.10;5.65;;;23.50;64.20;;;;;;5116915;28;20084;-37
2021/05/17 12:57:51;;;;;;;6.35;4.85;;;23.40;63.80;;;;;;5116152;28;20024;-40
2021/05/17 13:00:33;;;;;;;5.95;4.47;;;23.40;64.10;;;;;;5116653;28;20048;-37
2021/05/17 13:03:04;;;;;;;6.80;4.70;;;23.30;64.20;;;;;;5116637;28;20032;-37
2021/05/17 13:05:55;;;;;;;6.78;5.20;;;23.20;64.40;;;;;;5117370;28;20035;-37
2021/05/17 13:08:27;;;;;;;18.45;12.38;;;23.20;64.50;;;;;;5114169;28;20089;-39
2021/05/17 13:11:02;;;;;;;9.65;6.10;;;23.10;64.80;;;;;;5098777;28;20031;-39
2021/05/17 13:13:51;;;;;;;8.68;6.32;;;23.10;65.30;;;;;;5116998;28;20407;-37
2021/05/17 13:16:20;;;;;;;9.63;6.18;;;23.10;65.30;;;;;;5117097;27;20015;-37
2021/05/17 13:19:06;;;;;;;7.20;5.85;;;23.00;65.30;;;;;;5116606;28;20024;-38
2021/05/17 13:21:56;;;;;;;8.38;5.22;;;23.00;65.30;;;;;;5116504;28;20114;-37
2021/05/17 13:30:14;;;;;;;14.10;9.27;;;22.90;66.80;;;;;;5115472;28;20035;-39
2021/05/17 13:32:42;;;;;;;6.15;5.20;;;22.90;67.00;;;;;;5116486;28;20072;-37
2021/05/17 13:35:10;;;;;;;9.40;4.57;;;22.90;67.10;;;;;;5116799;28;20114;-37
2021/05/17 13:37:37;;;;;;;6.22;5.38;;;23.00;67.40;;;;;;5116262;28;20023;-39